Saturday, October 25, 2014, 9:02 PM EDT

KLKU, Louisa, Louisa County Airport/freeman Field

Location: Louisa, VA, United States Lat: 38.01
Local Time: 9:02 PM EDT ( 1:02 GMT) Lon: -77.97
Time Zone: US/Eastern Elev: 492 ft

Show me the last for .
Show Decoded

2014-10-25 20:35 METAR KLKU 260035Z AUTO 00000KT 10SM CLR 16/07 A2977 RMK AO2 =
2014-10-25 20:15 METAR KLKU 260015Z AUTO 22004KT 10SM CLR 16/07 A2977 RMK AO2 =
2014-10-25 19:55 METAR KLKU 252355Z AUTO 21003KT 10SM CLR 16/07 A2978 RMK AO2 =
2014-10-25 19:35 METAR KLKU 252335Z AUTO 19004KT 10SM CLR 16/07 A2978 RMK AO2 =
2014-10-25 19:15 METAR KLKU 252315Z AUTO 19003KT 10SM CLR 16/07 A2978 RMK AO2 =
2014-10-25 18:55 METAR KLKU 252255Z AUTO 19003KT 10SM CLR 17/07 A2978 RMK AO2 =
2014-10-25 18:35 METAR KLKU 252235Z AUTO 19005KT 10SM CLR 18/06 A2978 RMK AO2 =
2014-10-25 18:15 METAR KLKU 252215Z AUTO 18004KT 10SM CLR 18/06 A2978 RMK AO2 =
2014-10-25 17:55 METAR KLKU 252155Z AUTO 20003KT 10SM CLR 19/07 A2980 RMK AO2 =
2014-10-25 17:35 METAR KLKU 252135Z AUTO 00000KT 10SM CLR 20/07 A2980 RMK AO2 =
2014-10-25 17:15 METAR KLKU 252115Z AUTO 20004KT 10SM CLR 21/06 A2981 RMK AO2 =
2014-10-25 16:55 METAR KLKU 252055Z AUTO 21004KT 10SM CLR 22/06 A2981 RMK AO2 =
2014-10-25 16:35 METAR KLKU 252035Z AUTO 23004KT 10SM CLR 22/06 A2982 RMK AO2 =
2014-10-25 16:15 METAR KLKU 252015Z AUTO 23006KT 10SM SCT110 22/06 A2982 RMK AO2 =
2014-10-25 15:55 METAR KLKU 251955Z AUTO 21006KT 10SM CLR 22/05 A2982 RMK AO2 =
2014-10-25 15:35 METAR KLKU 251935Z AUTO 23006KT 10SM CLR 22/05 A2983 RMK AO2 =
2014-10-25 15:15 METAR KLKU 251915Z AUTO 21005KT 10SM CLR 22/04 A2984 RMK AO2 =
2014-10-25 14:55 METAR KLKU 251855Z AUTO 21006KT 10SM CLR 22/04 A2985 RMK AO2 =
2014-10-25 14:35 METAR KLKU 251835Z AUTO 25007KT 220V280 10SM CLR 21/03 A2987 RMK AO2 =
2014-10-25 14:15 METAR KLKU 251815Z AUTO 22007KT 10SM CLR 21/03 A2987 RMK AO2 =
2014-10-25 13:55 METAR KLKU 251755Z AUTO 22006KT 10SM CLR 21/03 A2988 RMK AO2 =
2014-10-25 13:35 METAR KLKU 251735Z AUTO 19006KT 10SM CLR 21/03 A2989 RMK AO2 =
2014-10-25 13:15 METAR KLKU 251715Z AUTO 24007KT 200V280 10SM CLR 20/02 A2991 RMK AO2 =
2014-10-25 12:55 METAR KLKU 251655Z AUTO 19008KT 10SM CLR 19/02 A2991 RMK AO2 =
2014-10-25 12:35 METAR KLKU 251635Z AUTO 23007KT 10SM CLR 19/02 A2993 RMK AO2 =
2014-10-25 12:15 METAR KLKU 251615Z AUTO 20008KT 180V250 10SM CLR 19/02 A2994 RMK AO2 =
2014-10-25 11:55 METAR KLKU 251555Z AUTO 22005KT 10SM CLR 18/03 A2995 RMK AO2 =
2014-10-25 11:35 METAR KLKU 251535Z AUTO 21005KT 10SM CLR 17/03 A2996 RMK AO2 =
2014-10-25 11:15 METAR KLKU 251515Z AUTO 23004KT 10SM CLR 16/06 A2997 RMK AO2 =
2014-10-25 10:55 METAR KLKU 251455Z AUTO 22003KT 10SM CLR 14/06 A2998 RMK AO2 =
2014-10-25 10:35 METAR KLKU 251435Z AUTO 23004KT 10SM CLR 13/06 A2998 RMK AO2 =
2014-10-25 10:15 METAR KLKU 251415Z AUTO 24003KT 10SM CLR 13/06 A2999 RMK AO2 =
2014-10-25 09:55 METAR KLKU 251355Z AUTO 23003KT 10SM CLR 12/05 A2999 RMK AO2 =
2014-10-25 09:35 METAR KLKU 251335Z AUTO 25004KT 10SM CLR 10/04 A2999 RMK AO2 =
2014-10-25 09:15 METAR KLKU 251315Z AUTO 25004KT 10SM CLR 08/05 A2999 RMK AO2 =
2014-10-25 08:35 METAR KLKU 251235Z AUTO 00000KT 10SM CLR 05/04 A2997 RMK AO2 =
2014-10-25 08:15 METAR KLKU 251215Z AUTO 00000KT 10SM CLR 03/03 A2996 RMK AO2 =
2014-10-25 07:55 METAR KLKU 251155Z AUTO 00000KT 7SM CLR 01/01 A2997 RMK AO2 =
2014-10-25 07:35 METAR KLKU 251135Z AUTO 00000KT 7SM CLR 01/01 A2997 RMK AO2 =
2014-10-25 07:15 METAR KLKU 251115Z AUTO 00000KT 7SM CLR 01/01 A2997 RMK AO2 =
2014-10-25 06:55 METAR KLKU 251055Z AUTO 00000KT 7SM CLR 01/01 A2997 RMK AO2 =
2014-10-25 06:35 METAR KLKU 251035Z AUTO 00000KT 4SM BR CLR 01/00 A2998 RMK AO2 =
2014-10-25 06:15 METAR KLKU 251015Z AUTO 00000KT 5SM BR CLR 01/01 A2997 RMK AO2 =
2014-10-25 05:55 METAR KLKU 250955Z AUTO 00000KT 7SM CLR 02/01 A2996 RMK AO2 =
2014-10-25 05:35 METAR KLKU 250935Z AUTO 00000KT 5SM BR CLR 01/01 A2996 RMK AO2 =
2014-10-25 05:15 METAR KLKU 250915Z AUTO 00000KT 7SM CLR 02/02 A2996 RMK AO2 =
2014-10-25 04:55 METAR KLKU 250855Z AUTO 00000KT 7SM CLR 02/02 A2996 RMK AO2 =
2014-10-25 04:35 METAR KLKU 250835Z AUTO 00000KT 10SM CLR 02/02 A2996 RMK AO2 =
2014-10-25 03:55 METAR KLKU 250755Z AUTO 00000KT 7SM CLR 02/02 A2996 RMK AO2 =
2014-10-25 03:35 METAR KLKU 250735Z AUTO 00000KT 7SM CLR 03/03 A2995 RMK AO2 =
2014-10-25 03:15 METAR KLKU 250715Z AUTO 00000KT 7SM CLR 03/02 A2995 RMK AO2 =
2014-10-25 02:55 METAR KLKU 250655Z AUTO 00000KT 7SM CLR 03/02 A2995 RMK AO2 =
2014-10-25 02:35 METAR KLKU 250635Z AUTO 00000KT 10SM CLR 03/03 A2995 RMK AO2 =
2014-10-25 02:15 METAR KLKU 250615Z AUTO 33003KT 7SM CLR 03/03 A2996 RMK AO2 =
2014-10-25 01:55 METAR KLKU 250555Z AUTO 00000KT 10SM CLR 04/03 A2996 RMK AO2 =
2014-10-25 01:35 METAR KLKU 250535Z AUTO 00000KT 10SM CLR 04/03 A2996 RMK AO2 =
2014-10-25 01:15 METAR KLKU 250515Z AUTO 00000KT 10SM CLR 05/04 A2996 RMK AO2 =
2014-10-25 00:55 METAR KLKU 250455Z AUTO 00000KT 10SM CLR 06/04 A2996 RMK AO2 =
2014-10-25 00:35 METAR KLKU 250435Z AUTO 00000KT 10SM CLR 05/04 A2996 RMK AO2 =
2014-10-25 00:15 METAR KLKU 250415Z AUTO 00000KT 10SM CLR 05/04 A2996 RMK AO2 =
2014-10-24 23:55 METAR KLKU 250355Z AUTO 00000KT 10SM CLR 06/05 A2996 RMK AO2 =
2014-10-24 23:15 METAR KLKU 250315Z AUTO 00000KT 10SM CLR 06/04 A2996 RMK AO2 =
2014-10-24 22:35 METAR KLKU 250235Z AUTO 00000KT 10SM CLR 06/05 A2995 RMK AO2 =
2014-10-24 22:15 METAR KLKU 250215Z AUTO 00000KT 10SM CLR 06/04 A2995 RMK AO2 =
2014-10-24 21:55 METAR KLKU 250155Z AUTO 00000KT 10SM CLR 06/04 A2995 RMK AO2 =
2014-10-24 21:35 METAR KLKU 250135Z AUTO 00000KT 10SM CLR 07/05 A2994 RMK AO2 =
2014-10-24 21:15 METAR KLKU 250115Z AUTO 00000KT 10SM CLR 07/05 A2994 RMK AO2 =

Support USWX by starting your Amazon purchase here.